sensor_id;sensor_type;location;lat;lon;timestamp;pressure;altitude;pressure_sealevel;temperature;humidity
56681;BME280;42558;52.388;13.390;2022-08-06T00:02:27;101642.72;;;15.45;72.79
56681;BME280;42558;52.388;13.390;2022-08-06T00:05:00;101650.14;;;15.40;72.70
56681;BME280;42558;52.388;13.390;2022-08-06T00:07:31;101655.94;;;15.35;72.69
56681;BME280;42558;52.388;13.390;2022-08-06T00:10:12;101668.99;;;15.29;72.96
56681;BME280;42558;52.388;13.390;2022-08-06T00:12:40;101669.70;;;15.29;73.13
56681;BME280;42558;52.388;13.390;2022-08-06T00:15:08;101676.54;;;15.20;73.46
56681;BME280;42558;52.388;13.390;2022-08-06T00:17:44;101687.30;;;15.16;73.66
56681;BME280;42558;52.388;13.390;2022-08-06T00:20:14;101690.77;;;15.09;73.70
56681;BME280;42558;52.388;13.390;2022-08-06T00:22:58;101688.43;;;15.05;73.77
56681;BME280;42558;52.388;13.390;2022-08-06T00:25:27;101691.22;;;15.00;73.91
56681;BME280;42558;52.388;13.390;2022-08-06T00:28:00;101690.64;;;14.95;74.04
56681;BME280;42558;52.388;13.390;2022-08-06T00:30:35;101684.58;;;14.91;74.16
56681;BME280;42558;52.388;13.390;2022-08-06T00:33:03;101683.73;;;14.94;73.92
56681;BME280;42558;52.388;13.390;2022-08-06T00:35:30;101684.55;;;14.89;74.13
56681;BME280;42558;52.388;13.390;2022-08-06T00:37:58;101687.55;;;14.72;74.82
56681;BME280;42558;52.388;13.390;2022-08-06T00:40:29;101684.83;;;14.68;74.97
56681;BME280;42558;52.388;13.390;2022-08-06T00:42:59;101684.15;;;14.70;74.89
56681;BME280;42558;52.388;13.390;2022-08-06T00:45:33;101686.73;;;14.63;74.56
56681;BME280;42558;52.388;13.390;2022-08-06T00:48:12;101691.39;;;14.67;74.38
56681;BME280;42558;52.388;13.390;2022-08-06T00:51:00;101703.20;;;14.64;74.60
56681;BME280;42558;52.388;13.390;2022-08-06T00:53:28;101701.88;;;14.57;74.07
56681;BME280;42558;52.388;13.390;2022-08-06T00:56:01;101703.55;;;14.50;74.59
56681;BME280;42558;52.388;13.390;2022-08-06T00:58:37;101705.48;;;14.48;74.52
56681;BME280;42558;52.388;13.390;2022-08-06T01:01:09;101705.02;;;14.52;74.58
56681;BME280;42558;52.388;13.390;2022-08-06T01:03:45;101701.14;;;14.54;74.09
56681;BME280;42558;52.388;13.390;2022-08-06T01:06:21;101702.73;;;14.42;74.52
56681;BME280;42558;52.388;13.390;2022-08-06T01:09:09;101717.16;;;14.37;74.89
56681;BME280;42558;52.388;13.390;2022-08-06T01:11:38;101711.42;;;14.44;73.96
56681;BME280;42558;52.388;13.390;2022-08-06T01:14:06;101708.19;;;14.40;74.00
56681;BME280;42558;52.388;13.390;2022-08-06T01:16:47;101708.86;;;14.25;75.06
56681;BME280;42558;52.388;13.390;2022-08-06T01:22:47;101717.09;;;14.18;74.51
56681;BME280;42558;52.388;13.390;2022-08-06T01:25:46;101707.45;;;14.13;74.80
56681;BME280;42558;52.388;13.390;2022-08-06T01:28:42;101711.02;;;14.15;75.17
56681;BME280;42558;52.388;13.390;2022-08-06T01:31:47;101717.26;;;14.06;74.97
56681;BME280;42558;52.388;13.390;2022-08-06T01:34:22;101714.04;;;14.04;75.58
56681;BME280;42558;52.388;13.390;2022-08-06T01:39:37;101714.69;;;13.99;75.72
56681;BME280;42558;52.388;13.390;2022-08-06T01:42:29;101715.30;;;14.05;75.46
56681;BME280;42558;52.388;13.390;2022-08-06T01:45:07;101717.83;;;14.09;75.46
56681;BME280;42558;52.388;13.390;2022-08-06T01:47:38;101719.90;;;13.94;76.20
56681;BME280;42558;52.388;13.390;2022-08-06T01:50:27;101721.91;;;13.86;76.71
56681;BME280;42558;52.388;13.390;2022-08-06T01:52:59;101718.80;;;13.80;76.91
56681;BME280;42558;52.388;13.390;2022-08-06T01:55:35;101715.52;;;13.73;76.92
56681;BME280;42558;52.388;13.390;2022-08-06T01:58:31;101716.77;;;13.75;77.42
56681;BME280;42558;52.388;13.390;2022-08-06T02:01:05;101727.32;;;13.71;78.14
56681;BME280;42558;52.388;13.390;2022-08-06T02:03:42;101737.42;;;13.72;77.90
56681;BME280;42558;52.388;13.390;2022-08-06T02:06:32;101734.66;;;13.66;78.21
56681;BME280;42558;52.388;13.390;2022-08-06T02:09:05;101731.05;;;13.62;79.13
56681;BME280;42558;52.388;13.390;2022-08-06T02:12:11;101725.25;;;13.52;79.08
56681;BME280;42558;52.388;13.390;2022-08-06T02:14:53;101726.50;;;13.53;79.32
56681;BME280;42558;52.388;13.390;2022-08-06T02:17:28;101722.54;;;13.49;79.75
56681;BME280;42558;52.388;13.390;2022-08-06T02:20:32;101731.33;;;13.47;79.59
56681;BME280;42558;52.388;13.390;2022-08-06T02:23:07;101737.48;;;13.45;80.17
56681;BME280;42558;52.388;13.390;2022-08-06T02:25:38;101743.42;;;13.42;80.73
56681;BME280;42558;52.388;13.390;2022-08-06T02:28:09;101751.21;;;13.42;80.55
56681;BME280;42558;52.388;13.390;2022-08-06T02:30:51;101752.64;;;13.53;79.54
56681;BME280;42558;52.388;13.390;2022-08-06T02:33:19;101752.27;;;13.42;80.17
56681;BME280;42558;52.388;13.390;2022-08-06T02:36:25;101764.25;;;13.41;80.75
56681;BME280;42558;52.388;13.390;2022-08-06T02:39:06;101766.89;;;13.40;80.83
56681;BME280;42558;52.388;13.390;2022-08-06T02:41:52;101771.73;;;13.44;80.58
56681;BME280;42558;52.388;13.390;2022-08-06T02:44:42;101772.85;;;13.37;80.84
56681;BME280;42558;52.388;13.390;2022-08-06T02:47:14;101776.45;;;13.22;81.54
56681;BME280;42558;52.388;13.390;2022-08-06T02:49:47;101776.11;;;13.15;82.15
56681;BME280;42558;52.388;13.390;2022-08-06T02:52:42;101780.62;;;13.11;82.51
56681;BME280;42558;52.388;13.390;2022-08-06T02:55:29;101784.48;;;13.10;82.13
56681;BME280;42558;52.388;13.390;2022-08-06T02:58:32;101785.80;;;13.05;81.96
56681;BME280;42558;52.388;13.390;2022-08-06T03:01:14;101792.45;;;13.11;81.92
56681;BME280;42558;52.388;13.390;2022-08-06T03:03:52;101795.60;;;13.18;80.92
56681;BME280;42558;52.388;13.390;2022-08-06T03:06:32;101799.02;;;13.13;81.45
56681;BME280;42558;52.388;13.390;2022-08-06T03:09:03;101798.33;;;13.13;81.00
56681;BME280;42558;52.388;13.390;2022-08-06T03:11:34;101800.15;;;13.08;81.42
56681;BME280;42558;52.388;13.390;2022-08-06T03:14:06;101801.52;;;13.05;81.11
56681;BME280;42558;52.388;13.390;2022-08-06T03:16:55;101813.80;;;13.02;80.94
56681;BME280;42558;52.388;13.390;2022-08-06T03:19:26;101814.26;;;13.07;81.30
56681;BME280;42558;52.388;13.390;2022-08-06T03:22:18;101815.30;;;13.15;80.49
56681;BME280;42558;52.388;13.390;2022-08-06T03:25:07;101822.85;;;13.04;80.63
56681;BME280;42558;52.388;13.390;2022-08-06T03:27:39;101828.91;;;12.90;81.49
56681;BME280;42558;52.388;13.390;2022-08-06T03:30:16;101828.90;;;12.89;81.65
56681;BME280;42558;52.388;13.390;2022-08-06T03:33:08;101831.54;;;12.89;81.44
56681;BME280;42558;52.388;13.390;2022-08-06T03:35:58;101836.44;;;12.87;81.61
56681;BME280;42558;52.388;13.390;2022-08-06T03:38:32;101840.05;;;12.91;81.59
56681;BME280;42558;52.388;13.390;2022-08-06T03:41:03;101845.36;;;12.83;81.91
56681;BME280;42558;52.388;13.390;2022-08-06T03:43:34;101846.46;;;12.77;82.20
56681;BME280;42558;52.388;13.390;2022-08-06T03:46:29;101850.98;;;12.66;82.62
56681;BME280;42558;52.388;13.390;2022-08-06T03:49:02;101857.41;;;12.62;83.04
56681;BME280;42558;52.388;13.390;2022-08-06T03:51:32;101861.41;;;12.59;83.19
56681;BME280;42558;52.388;13.390;2022-08-06T03:54:31;101865.20;;;12.55;83.56
56681;BME280;42558;52.388;13.390;2022-08-06T03:57:10;101863.10;;;12.64;83.13
56681;BME280;42558;52.388;13.390;2022-08-06T03:59:42;101870.63;;;12.62;83.32
56681;BME280;42558;52.388;13.390;2022-08-06T04:02:48;101875.20;;;12.61;83.23
56681;BME280;42558;52.388;13.390;2022-08-06T04:05:23;101877.34;;;12.62;83.33
56681;BME280;42558;52.388;13.390;2022-08-06T04:07:55;101879.23;;;12.67;83.30
56681;BME280;42558;52.388;13.390;2022-08-06T04:10:28;101884.89;;;12.67;83.15
56681;BME280;42558;52.388;13.390;2022-08-06T04:13:04;101883.84;;;12.68;82.95
56681;BME280;42558;52.388;13.390;2022-08-06T04:15:53;101883.05;;;12.64;83.01
56681;BME280;42558;52.388;13.390;2022-08-06T04:18:35;101883.44;;;12.58;83.48
56681;BME280;42558;52.388;13.390;2022-08-06T04:21:16;101880.35;;;12.55;83.78
56681;BME280;42558;52.388;13.390;2022-08-06T04:24:05;101879.86;;;12.56;84.15
56681;BME280;42558;52.388;13.390;2022-08-06T04:26:38;101885.91;;;12.58;83.85
56681;BME280;42558;52.388;13.390;2022-08-06T04:29:11;101893.05;;;12.55;84.20
56681;BME280;42558;52.388;13.390;2022-08-06T04:31:44;101901.72;;;12.63;84.11
56681;BME280;42558;52.388;13.390;2022-08-06T04:34:35;101903.58;;;12.75;83.32
56681;BME280;42558;52.388;13.390;2022-08-06T04:37:23;101911.17;;;12.75;83.26
56681;BME280;42558;52.388;13.390;2022-08-06T04:39:51;101911.58;;;12.77;83.19
56681;BME280;42558;52.388;13.390;2022-08-06T04:42:19;101914.36;;;12.76;83.44
56681;BME280;42558;52.388;13.390;2022-08-06T04:44:47;101921.95;;;12.75;83.29
56681;BME280;42558;52.388;13.390;2022-08-06T04:47:30;101923.73;;;12.76;83.39
56681;BME280;42558;52.388;13.390;2022-08-06T04:50:13;101926.02;;;12.76;83.84
56681;BME280;42558;52.388;13.390;2022-08-06T04:52:48;101929.23;;;12.77;83.93
56681;BME280;42558;52.388;13.390;2022-08-06T04:55:22;101937.54;;;12.85;83.58
56681;BME280;42558;52.388;13.390;2022-08-06T04:58:02;101939.27;;;12.92;83.14
56681;BME280;42558;52.388;13.390;2022-08-06T05:00:46;101941.27;;;12.94;82.96
56681;BME280;42558;52.388;13.390;2022-08-06T05:03:26;101941.86;;;13.05;82.98
56681;BME280;42558;52.388;13.390;2022-08-06T05:09:10;101951.05;;;13.13;82.23
56681;BME280;42558;52.388;13.390;2022-08-06T05:12:03;101962.85;;;13.11;82.24
56681;BME280;42558;52.388;13.390;2022-08-06T05:14:42;101965.41;;;13.07;82.76
56681;BME280;42558;52.388;13.390;2022-08-06T05:17:15;101968.32;;;13.11;82.90
56681;BME280;42558;52.388;13.390;2022-08-06T05:19:55;101965.66;;;13.18;82.69
56681;BME280;42558;52.388;13.390;2022-08-06T05:22:27;101967.79;;;13.19;82.37
56681;BME280;42558;52.388;13.390;2022-08-06T05:25:15;101972.27;;;13.29;81.82
56681;BME280;42558;52.388;13.390;2022-08-06T05:27:48;101977.02;;;13.20;81.76
56681;BME280;42558;52.388;13.390;2022-08-06T05:30:48;101987.98;;;13.07;82.59
56681;BME280;42558;52.388;13.390;2022-08-06T05:33:26;101994.76;;;13.10;82.64
56681;BME280;42558;52.388;13.390;2022-08-06T05:35:57;101996.83;;;13.07;82.37
56681;BME280;42558;52.388;13.390;2022-08-06T05:38:34;101997.38;;;13.08;82.84
56681;BME280;42558;52.388;13.390;2022-08-06T05:41:09;101993.84;;;13.08;82.60
56681;BME280;42558;52.388;13.390;2022-08-06T05:43:40;101995.98;;;13.08;82.50
56681;BME280;42558;52.388;13.390;2022-08-06T05:46:33;101996.81;;;13.14;82.68
56681;BME280;42558;52.388;13.390;2022-08-06T05:49:09;102003.23;;;13.31;81.86
56681;BME280;42558;52.388;13.390;2022-08-06T05:52:57;102008.83;;;13.36;81.57
56681;BME280;42558;52.388;13.390;2022-08-06T05:55:34;102012.88;;;13.52;80.66
56681;BME280;42558;52.388;13.390;2022-08-06T05:58:13;102015.30;;;13.83;80.03
56681;BME280;42558;52.388;13.390;2022-08-06T06:00:45;102011.84;;;14.14;78.82
56681;BME280;42558;52.388;13.390;2022-08-06T06:03:16;102016.23;;;14.40;77.57
56681;BME280;42558;52.388;13.390;2022-08-06T06:05:58;102023.17;;;14.43;76.37
56681;BME280;42558;52.388;13.390;2022-08-06T06:08:42;102026.14;;;14.31;76.60
56681;BME280;42558;52.388;13.390;2022-08-06T06:11:26;102026.63;;;14.66;76.26
56681;BME280;42558;52.388;13.390;2022-08-06T06:14:29;102021.69;;;15.01;75.14
56681;BME280;42558;52.388;13.390;2022-08-06T06:20:46;102025.98;;;15.26;73.48
56681;BME280;42558;52.388;13.390;2022-08-06T06:26:46;102024.67;;;15.58;70.98
56681;BME280;42558;52.388;13.390;2022-08-06T06:32:38;102021.69;;;15.72;71.14
56681;BME280;42558;52.388;13.390;2022-08-06T06:35:36;102027.92;;;16.04;70.25
56681;BME280;42558;52.388;13.390;2022-08-06T06:41:24;102037.84;;;16.70;68.02
56681;BME280;42558;52.388;13.390;2022-08-06T06:44:33;102040.84;;;16.87;66.92
56681;BME280;42558;52.388;13.390;2022-08-06T06:50:18;102050.11;;;16.72;65.64
56681;BME280;42558;52.388;13.390;2022-08-06T06:52:49;102045.27;;;16.85;66.90
56681;BME280;42558;52.388;13.390;2022-08-06T06:55:31;102042.91;;;17.28;64.57
56681;BME280;42558;52.388;13.390;2022-08-06T06:58:55;102048.21;;;16.99;64.09
56681;BME280;42558;52.388;13.390;2022-08-06T07:01:28;102049.30;;;16.78;64.18
56681;BME280;42558;52.388;13.390;2022-08-06T07:04:02;102052.45;;;16.94;63.98
56681;BME280;42558;52.388;13.390;2022-08-06T07:06:36;102045.98;;;17.35;63.28
56681;BME280;42558;52.388;13.390;2022-08-06T07:09:21;102040.91;;;17.77;61.94
56681;BME280;42558;52.388;13.390;2022-08-06T07:12:14;102048.96;;;17.88;61.15
56681;BME280;42558;52.388;13.390;2022-08-06T07:14:50;102051.11;;;17.91;60.55
56681;BME280;42558;52.388;13.390;2022-08-06T07:17:30;102053.72;;;18.20;58.86
56681;BME280;42558;52.388;13.390;2022-08-06T07:20:26;102051.38;;;18.11;58.50
56681;BME280;42558;52.388;13.390;2022-08-06T07:22:58;102049.92;;;18.07;58.68
56681;BME280;42558;52.388;13.390;2022-08-06T07:25:48;102051.24;;;17.81;58.14
56681;BME280;42558;52.388;13.390;2022-08-06T07:28:24;102056.55;;;18.18;58.43
56681;BME280;42558;52.388;13.390;2022-08-06T07:30:58;102054.55;;;18.70;56.60
56681;BME280;42558;52.388;13.390;2022-08-06T07:33:41;102062.88;;;18.61;55.77
56681;BME280;42558;52.388;13.390;2022-08-06T07:36:32;102060.73;;;18.53;55.12
56681;BME280;42558;52.388;13.390;2022-08-06T07:39:11;102062.48;;;18.43;55.78
56681;BME280;42558;52.388;13.390;2022-08-06T07:41:42;102063.41;;;18.53;56.05
56681;BME280;42558;52.388;13.390;2022-08-06T07:44:35;102065.25;;;18.96;55.17
56681;BME280;42558;52.388;13.390;2022-08-06T07:47:35;102065.06;;;18.78;54.68
56681;BME280;42558;52.388;13.390;2022-08-06T07:50:23;102065.41;;;18.99;54.35
56681;BME280;42558;52.388;13.390;2022-08-06T07:52:55;102063.05;;;19.41;53.91
56681;BME280;42558;52.388;13.390;2022-08-06T07:55:25;102062.86;;;19.55;52.32
56681;BME280;42558;52.388;13.390;2022-08-06T07:58:07;102065.92;;;19.28;52.79
56681;BME280;42558;52.388;13.390;2022-08-06T08:00:36;102068.05;;;19.40;52.11
56681;BME280;42558;52.388;13.390;2022-08-06T08:03:05;102071.21;;;19.70;51.05
56681;BME280;42558;52.388;13.390;2022-08-06T08:06:14;102066.94;;;19.72;50.30
56681;BME280;42558;52.388;13.390;2022-08-06T08:08:52;102076.80;;;19.36;52.24
56681;BME280;42558;52.388;13.390;2022-08-06T08:11:24;102073.17;;;19.70;52.74
56681;BME280;42558;52.388;13.390;2022-08-06T08:14:16;102069.66;;;20.04;50.88
56681;BME280;42558;52.388;13.390;2022-08-06T08:16:45;102077.00;;;19.99;50.30
56681;BME280;42558;52.388;13.390;2022-08-06T08:19:41;102079.45;;;20.12;49.26
56681;BME280;42558;52.388;13.390;2022-08-06T08:22:16;102084.81;;;19.54;50.98
56681;BME280;42558;52.388;13.390;2022-08-06T08:24:49;102086.45;;;19.02;51.06
56681;BME280;42558;52.388;13.390;2022-08-06T08:27:20;102084.97;;;18.55;52.47
56681;BME280;42558;52.388;13.390;2022-08-06T08:30:04;102087.33;;;19.21;53.14
56681;BME280;42558;52.388;13.390;2022-08-06T08:32:31;102081.75;;;19.61;51.73
56681;BME280;42558;52.388;13.390;2022-08-06T08:34:59;102079.05;;;19.77;51.54
56681;BME280;42558;52.388;13.390;2022-08-06T08:37:26;102081.55;;;19.77;51.60
56681;BME280;42558;52.388;13.390;2022-08-06T08:39:58;102082.00;;;20.01;52.33
56681;BME280;42558;52.388;13.390;2022-08-06T08:42:46;102079.23;;;20.20;50.86
56681;BME280;42558;52.388;13.390;2022-08-06T08:45:21;102082.77;;;19.85;49.78
56681;BME280;42558;52.388;13.390;2022-08-06T08:48:01;102080.43;;;19.88;49.71
56681;BME280;42558;52.388;13.390;2022-08-06T08:50:33;102086.99;;;20.41;49.41
56681;BME280;42558;52.388;13.390;2022-08-06T08:53:09;102084.88;;;20.90;47.95
56681;BME280;42558;52.388;13.390;2022-08-06T08:55:41;102082.73;;;20.92;47.47
56681;BME280;42558;52.388;13.390;2022-08-06T08:58:29;102085.38;;;20.42;48.62
56681;BME280;42558;52.388;13.390;2022-08-06T09:01:10;102082.51;;;20.08;49.95
56681;BME280;42558;52.388;13.390;2022-08-06T09:03:57;102082.54;;;19.98;47.93
56681;BME280;42558;52.388;13.390;2022-08-06T09:06:28;102079.48;;;20.04;47.65
56681;BME280;42558;52.388;13.390;2022-08-06T09:08:57;102083.87;;;20.82;46.68
56681;BME280;42558;52.388;13.390;2022-08-06T09:11:36;102084.56;;;21.08;44.87
56681;BME280;42558;52.388;13.390;2022-08-06T09:14:23;102082.66;;;21.39;45.89
56681;BME280;42558;52.388;13.390;2022-08-06T09:17:02;102083.98;;;21.10;44.35
56681;BME280;42558;52.388;13.390;2022-08-06T09:19:31;102085.12;;;20.21;47.26
56681;BME280;42558;52.388;13.390;2022-08-06T09:22:06;102089.07;;;19.70;49.19
56681;BME280;42558;52.388;13.390;2022-08-06T09:24:36;102089.27;;;19.62;50.28
56681;BME280;42558;52.388;13.390;2022-08-06T09:27:10;102094.81;;;19.44;50.44
56681;BME280;42558;52.388;13.390;2022-08-06T09:30:00;102096.77;;;19.45;50.81
56681;BME280;42558;52.388;13.390;2022-08-06T09:32:48;102092.56;;;19.92;48.73
56681;BME280;42558;52.388;13.390;2022-08-06T09:35:28;102092.88;;;20.03;48.10
56681;BME280;42558;52.388;13.390;2022-08-06T09:38:14;102089.64;;;20.51;47.40
56681;BME280;42558;52.388;13.390;2022-08-06T09:41:11;102093.69;;;20.20;47.78
56681;BME280;42558;52.388;13.390;2022-08-06T09:43:44;102099.42;;;19.64;48.37
56681;BME280;42558;52.388;13.390;2022-08-06T09:46:37;102098.57;;;19.30;49.34
56681;BME280;42558;52.388;13.390;2022-08-06T09:49:05;102097.12;;;20.11;47.84
56681;BME280;42558;52.388;13.390;2022-08-06T09:52:16;102100.09;;;20.63;44.75
56681;BME280;42558;52.388;13.390;2022-08-06T09:54:45;102092.42;;;20.25;45.68
56681;BME280;42558;52.388;13.390;2022-08-06T09:57:22;102094.21;;;20.62;43.85
56681;BME280;42558;52.388;13.390;2022-08-06T10:00:05;102091.10;;;20.69;44.91
56681;BME280;42558;52.388;13.390;2022-08-06T10:02:41;102091.41;;;21.00;43.78
56681;BME280;42558;52.388;13.390;2022-08-06T10:05:17;102094.46;;;20.48;45.87
56681;BME280;42558;52.388;13.390;2022-08-06T10:07:47;102091.96;;;20.08;45.79
56681;BME280;42558;52.388;13.390;2022-08-06T10:10:51;102093.55;;;20.50;44.63
56681;BME280;42558;52.388;13.390;2022-08-06T10:13:25;102093.07;;;21.16;44.01
56681;BME280;42558;52.388;13.390;2022-08-06T10:16:21;102098.24;;;20.69;43.00
56681;BME280;42558;52.388;13.390;2022-08-06T10:18:55;102095.21;;;20.02;44.36
56681;BME280;42558;52.388;13.390;2022-08-06T10:21:33;102097.52;;;20.05;44.46
56681;BME280;42558;52.388;13.390;2022-08-06T10:24:15;102098.95;;;20.01;44.66
56681;BME280;42558;52.388;13.390;2022-08-06T10:27:07;102096.57;;;19.64;44.35
56681;BME280;42558;52.388;13.390;2022-08-06T10:30:00;102101.77;;;19.52;45.76
56681;BME280;42558;52.388;13.390;2022-08-06T10:32:43;102099.41;;;19.75;45.45
56681;BME280;42558;52.388;13.390;2022-08-06T10:35:15;102100.27;;;20.61;44.54
56681;BME280;42558;52.388;13.390;2022-08-06T10:37:51;102093.84;;;21.10;43.34
56681;BME280;42558;52.388;13.390;2022-08-06T10:40:20;102096.55;;;21.64;41.36
56681;BME280;42558;52.388;13.390;2022-08-06T10:42:58;102096.72;;;21.30;41.01
56681;BME280;42558;52.388;13.390;2022-08-06T10:45:30;102093.40;;;21.40;40.50
56681;BME280;42558;52.388;13.390;2022-08-06T10:48:17;102088.63;;;21.35;41.14
56681;BME280;42558;52.388;13.390;2022-08-06T10:51:06;102091.30;;;21.16;41.14
56681;BME280;42558;52.388;13.390;2022-08-06T10:53:41;102097.06;;;20.26;40.57
56681;BME280;42558;52.388;13.390;2022-08-06T10:56:28;102095.05;;;19.94;41.61
56681;BME280;42558;52.388;13.390;2022-08-06T10:59:08;102093.34;;;20.15;40.25
56681;BME280;42558;52.388;13.390;2022-08-06T11:02:16;102087.39;;;20.65;39.63
56681;BME280;42558;52.388;13.390;2022-08-06T11:05:13;102078.76;;;21.17;39.61
56681;BME280;42558;52.388;13.390;2022-08-06T11:11:37;102083.31;;;20.24;41.13
56681;BME280;42558;52.388;13.390;2022-08-06T11:14:10;102082.05;;;19.87;41.67
56681;BME280;42558;52.388;13.390;2022-08-06T11:16:55;102088.70;;;19.80;43.23
56681;BME280;42558;52.388;13.390;2022-08-06T11:19:44;102085.11;;;19.81;42.82
56681;BME280;42558;52.388;13.390;2022-08-06T11:22:40;102082.83;;;20.52;41.01
56681;BME280;42558;52.388;13.390;2022-08-06T11:26:04;102072.80;;;20.82;40.54
56681;BME280;42558;52.388;13.390;2022-08-06T11:31:05;102057.26;;;21.74;38.79
56681;BME280;42558;52.388;13.390;2022-08-06T11:36:28;102066.90;;;20.81;39.43
56681;BME280;42558;52.388;13.390;2022-08-06T11:39:26;102068.13;;;20.28;40.90
56681;BME280;42558;52.388;13.390;2022-08-06T11:42:41;102067.02;;;20.01;41.93
56681;BME280;42558;52.388;13.390;2022-08-06T11:45:16;102065.13;;;20.76;41.86
56681;BME280;42558;52.388;13.390;2022-08-06T11:48:06;102063.34;;;20.99;40.46
56681;BME280;42558;52.388;13.390;2022-08-06T11:50:52;102062.58;;;21.06;40.82
56681;BME280;42558;52.388;13.390;2022-08-06T11:53:37;102054.09;;;21.15;38.90
56681;BME280;42558;52.388;13.390;2022-08-06T11:56:18;102064.19;;;20.83;40.64
56681;BME280;42558;52.388;13.390;2022-08-06T11:59:14;102066.96;;;20.74;40.83
56681;BME280;42558;52.388;13.390;2022-08-06T12:01:46;102069.74;;;20.58;41.25
56681;BME280;42558;52.388;13.390;2022-08-06T12:07:25;102070.15;;;20.77;40.77
56681;BME280;42558;52.388;13.390;2022-08-06T12:12:49;102063.05;;;21.33;39.11
56681;BME280;42558;52.388;13.390;2022-08-06T12:18:10;102057.98;;;21.73;37.01
56681;BME280;42558;52.388;13.390;2022-08-06T12:20:55;102058.67;;;21.59;37.99
56681;BME280;42558;52.388;13.390;2022-08-06T12:23:25;102053.72;;;21.36;38.17
56681;BME280;42558;52.388;13.390;2022-08-06T12:26:13;102055.27;;;21.03;39.36
56681;BME280;42558;52.388;13.390;2022-08-06T12:28:41;102058.25;;;21.09;39.64
56681;BME280;42558;52.388;13.390;2022-08-06T12:31:09;102061.33;;;21.25;38.80
56681;BME280;42558;52.388;13.390;2022-08-06T12:33:57;102063.21;;;20.94;38.76
56681;BME280;42558;52.388;13.390;2022-08-06T12:36:30;102066.66;;;20.88;39.25
56681;BME280;42558;52.388;13.390;2022-08-06T12:39:05;102063.70;;;21.00;38.97
56681;BME280;42558;52.388;13.390;2022-08-06T12:41:45;102059.55;;;21.03;38.12
56681;BME280;42558;52.388;13.390;2022-08-06T12:44:14;102061.59;;;20.97;38.80
56681;BME280;42558;52.388;13.390;2022-08-06T12:47:13;102060.69;;;21.17;38.80
56681;BME280;42558;52.388;13.390;2022-08-06T12:49:41;102052.38;;;21.61;38.75
56681;BME280;42558;52.388;13.390;2022-08-06T12:52:15;102053.85;;;21.42;37.09
56681;BME280;42558;52.388;13.390;2022-08-06T12:54:55;102044.99;;;21.32;34.24
56681;BME280;42558;52.388;13.390;2022-08-06T12:57:26;102039.16;;;21.23;34.56
56681;BME280;42558;52.388;13.390;2022-08-06T13:00:15;102040.20;;;21.46;35.92
56681;BME280;42558;52.388;13.390;2022-08-06T13:02:42;102034.30;;;21.61;36.11
56681;BME280;42558;52.388;13.390;2022-08-06T13:05:13;102039.35;;;21.58;35.95
56681;BME280;42558;52.388;13.390;2022-08-06T13:07:49;102038.67;;;21.38;36.91
56681;BME280;42558;52.388;13.390;2022-08-06T13:10:19;102045.81;;;21.40;36.99
56681;BME280;42558;52.388;13.390;2022-08-06T13:13:06;102042.95;;;21.56;36.87
56681;BME280;42558;52.388;13.390;2022-08-06T13:16:04;102040.10;;;21.55;35.77
56681;BME280;42558;52.388;13.390;2022-08-06T13:18:33;102034.98;;;21.48;36.68
56681;BME280;42558;52.388;13.390;2022-08-06T13:21:22;102030.30;;;21.67;37.34
56681;BME280;42558;52.388;13.390;2022-08-06T13:24:11;102041.04;;;21.81;36.01
56681;BME280;42558;52.388;13.390;2022-08-06T13:26:51;102038.84;;;21.57;36.45
56681;BME280;42558;52.388;13.390;2022-08-06T13:29:24;102036.63;;;21.46;36.31
56681;BME280;42558;52.388;13.390;2022-08-06T13:32:12;102038.63;;;21.24;35.41
56681;BME280;42558;52.388;13.390;2022-08-06T13:35:02;102041.52;;;21.00;35.97
56681;BME280;42558;52.388;13.390;2022-08-06T13:37:52;102045.58;;;20.87;35.49
56681;BME280;42558;52.388;13.390;2022-08-06T13:40:44;102036.80;;;21.09;34.96
56681;BME280;42558;52.388;13.390;2022-08-06T13:43:16;102029.19;;;21.37;35.26
56681;BME280;42558;52.388;13.390;2022-08-06T13:46:10;102024.15;;;21.58;34.29
56681;BME280;42558;52.388;13.390;2022-08-06T13:48:49;102026.98;;;21.43;35.44
56681;BME280;42558;52.388;13.390;2022-08-06T13:51:22;102021.42;;;21.89;34.90
56681;BME280;42558;52.388;13.390;2022-08-06T13:53:56;102022.55;;;21.86;33.85
56681;BME280;42558;52.388;13.390;2022-08-06T13:56:26;102021.74;;;21.78;33.99
56681;BME280;42558;52.388;13.390;2022-08-06T13:58:59;102018.98;;;21.85;35.04
56681;BME280;42558;52.388;13.390;2022-08-06T14:01:27;102024.61;;;21.91;34.37
56681;BME280;42558;52.388;13.390;2022-08-06T14:04:13;102030.96;;;21.85;35.16
56681;BME280;42558;52.388;13.390;2022-08-06T14:06:44;102029.94;;;21.66;34.71
56681;BME280;42558;52.388;13.390;2022-08-06T14:09:15;102027.34;;;21.89;34.88
56681;BME280;42558;52.388;13.390;2022-08-06T14:11:58;102026.28;;;22.15;33.94
56681;BME280;42558;52.388;13.390;2022-08-06T14:14:28;102023.13;;;22.23;33.59
56681;BME280;42558;52.388;13.390;2022-08-06T14:16:58;102017.88;;;22.00;33.81
56681;BME280;42558;52.388;13.390;2022-08-06T14:19:28;102022.74;;;21.84;34.64
56681;BME280;42558;52.388;13.390;2022-08-06T14:22:16;102021.13;;;22.37;34.45
56681;BME280;42558;52.388;13.390;2022-08-06T14:24:44;102024.70;;;22.13;34.53
56681;BME280;42558;52.388;13.390;2022-08-06T14:27:20;102024.06;;;21.64;35.76
56681;BME280;42558;52.388;13.390;2022-08-06T14:29:52;102019.27;;;21.25;35.79
56681;BME280;42558;52.388;13.390;2022-08-06T14:32:40;102018.76;;;21.07;36.71